Nearby METAR Reports

 

KISP - Islip, New York, USA
Distance from station: SW 4mi, 6km
Updated: Thu, 12/2/2021 10:56 pm EST
Light rain, Overcast
Light rain, Overcast
 Wind from NW
Wind: NW 22 mph , 35 km/h, Gust: 36 mph , 57 km/h
Temperature: 48°F , 9°C
Wind Chill: 41°F , 5°C
Dew Point: 41°F , 5°C
Humidity: 76%
Barometer: 29.62 inHg , 1003 hPa
Summary: Light rain
Clouds: Overcast
Visibility: 10 miles , 16 km
Cloud details: Partly cloudy 4200 ft
Mostly cloudy 5500 ft
Overcast 7000 ft
2021/12/03 03:56 KISP 030356Z 31019G31KT 10SM -RA SCT042 BKN055 OVC070 09/05 A2962 RMK AO2 PK WND 33037/0322 WSHFT 0313 RAB25 SLP029 P0000 T00940050
KHWV - Shirley, New York, USA
Distance from station: E 10mi, 16km
Updated: Thu, 12/2/2021 10:56 pm EST
Rain, Overcast
Rain, Overcast
 Wind from NW
Wind: NW 16 mph , 26 km/h, Gust: 26 mph , 43 km/h
Temperature: 50°F , 10°C
Wind Chill: 44°F , 7°C
Dew Point: 41°F , 5°C
Humidity: 71%
Barometer: 29.61 inHg , 1002.7 hPa
Summary: Rain
Clouds: Overcast
Visibility: 8 miles , 13 km
Cloud details: Few Clouds 3600 ft
Mostly cloudy 4700 ft
Overcast 7500 ft
2021/12/03 03:56 KHWV 030356Z AUTO 31014G23KT 8SM RA FEW036 BKN047 OVC075 10/05 A2961 RMK AO2 PK WND 29036/0341 WSHFT 0334 RAB28 SLP027 P0000 T01000050
 
KFRG - Farmingdale, New York, USA
Distance from station: WSW 20mi, 33km
Updated: Thu, 12/2/2021 10:53 pm EST
Overcast
Overcast
 Wind from NW
Wind: NW 22 mph , 35 km/h, Gust: 40 mph , 65 km/h
Temperature: 50°F , 10°C
Wind Chill: 43°F , 6°C
Dew Point: 37°F , 3°C
Humidity: 62%
Barometer: 29.65 inHg , 1004.1 hPa
Clouds: Overcast
Visibility: 10 miles , 16 km
Cloud details: Partly cloudy 4000 ft
Mostly cloudy 4700 ft
Overcast 6000 ft
2021/12/03 03:53 KFRG 030353Z AUTO 32019G35KT 10SM SCT040 BKN047 OVC060 10/03 A2965 RMK AO2 PK WND 33035/0350 WSHFT 0312 PRESRR SLP039 T01000033
KBDR - Bridgeport, Connecticut, USA
Distance from station: N 23mi, 37km
Updated: Thu, 12/2/2021 10:52 pm EST
Overcast
Overcast
 Wind from W
Wind: W 14 mph , 22 km/h, Gust: 18 mph , 30 km/h
Temperature: 48°F , 9°C
Wind Chill: 42°F , 6°C
Dew Point: 39°F , 4°C
Humidity: 71%
Barometer: 29.60 inHg , 1002.4 hPa
Clouds: Overcast
Visibility: 10 miles , 16 km
Cloud details: Overcast 7500 ft
2021/12/03 03:52 KBDR 030352Z AUTO 28012G16KT 10SM OVC075 09/04 A2960 RMK AO2 PK WND 30030/0255 RAE21 SLP022 P0005 T00940044
 
KFOK - Westhampton Beac, New York, USA
Distance from station: E 23mi, 37km
Updated: Thu, 12/2/2021 10:53 pm EST
Light rain, Overcast
Light rain, Overcast
 Wind from NW
Wind: NW 20 mph , 31 km/h, Gust: 35 mph , 56 km/h
Temperature: 48°F , 9°C
Wind Chill: 41°F , 5°C
Dew Point: 41°F , 5°C
Humidity: 76%
Barometer: 29.61 inHg , 1002.7 hPa
Summary: Light rain
Clouds: Overcast
Visibility: 10 miles , 16 km
Cloud details: Few Clouds 3600 ft
Mostly cloudy 4800 ft
Overcast 7000 ft
2021/12/03 03:53 KFOK 030353Z 31017G30KT 10SM -RA FEW036 BKN048 OVC070 09/05 A2961 RMK AO2 PK WND 29037/0331 WSHFT 0323 RAB26 SLP026 P0002 T00890050
KHVN - New Haven/Tweed, Connecticut, USA
Distance from station: NNE 31mi, 50km
Updated: Thu, 12/2/2021 10:53 pm EST
Overcast
Overcast
 Wind from WNW
Wind: WNW 8 mph , 13 km/h
Temperature: 52°F , 11°C
Dew Point: 43°F , 6°C
Humidity: 72%
Barometer: 29.58 inHg , 1001.7 hPa
Clouds: Overcast
Visibility: 10 miles , 16 km
Cloud details: Overcast 8000 ft
2021/12/03 03:53 KHVN 030353Z AUTO 30007KT 270V340 10SM OVC080 11/06 A2958 RMK AO2 PK WND 33030/0258 RAB04E24 SLP015 P0001 T01060061
 
KHPN - White Plains, New York, USA
Distance from station: WNW 37mi, 60km
Updated: Thu, 12/2/2021 10:56 pm EST
Mostly cloudy
Mostly cloudy
 Wind from WNW
Wind: WNW 15 mph , 24 km/h, Gust: 26 mph , 43 km/h
Temperature: 46°F , 8°C
Wind Chill: 40°F , 4°C
Dew Point: 36°F , 2°C
Humidity: 66%
Barometer: 29.62 inHg , 1003 hPa
Clouds: Mostly cloudy
Visibility: 10 miles , 16 km
Cloud details: Partly cloudy 5500 ft
Mostly cloudy 8500 ft
2021/12/03 03:56 KHPN 030356Z 30013G23KT 10SM SCT055 BKN085 08/02 A2962 RMK AO2 PK WND 30033/0305 RAE02 SLP032 P0000 T00830017
KJFK - Nyc/Jfk Arpt, New York, USA
Distance from station: WSW 40mi, 64km
Updated: Thu, 12/2/2021 10:51 pm EST
Mostly cloudy
Mostly cloudy
 Wind from NW
Wind: NW 29 mph , 46 km/h, Gust: 41 mph , 67 km/h
Temperature: 50°F , 10°C
Wind Chill: 42°F , 6°C
Dew Point: 37°F , 3°C
Humidity: 62%
Barometer: 29.65 inHg , 1004.1 hPa
Clouds: Mostly cloudy
Visibility: 10 miles , 16 km
Cloud details: Few Clouds 4200 ft
Mostly cloudy 5500 ft
Mostly cloudy 7500 ft
2021/12/03 03:51 KJFK 030351Z 31025G36KT 10SM FEW042 BKN055 BKN075 10/03 A2965 RMK AO2 PK WND 31044/0334 WSHFT 0312 SLP041 T01000028
 
KDXR - Danbury, Connecticut, USA
Distance from station: NNW 42mi, 68km
Updated: Thu, 12/2/2021 10:53 pm EST
Overcast
Overcast
 Wind from W
Wind: W 16 mph , 26 km/h, Gust: 24 mph , 39 km/h
Temperature: 48°F , 9°C
Wind Chill: 42°F , 6°C
Dew Point: 34°F , 1°C
Humidity: 58%
Barometer: 29.61 inHg , 1002.7 hPa
Clouds: Overcast
Visibility: 10 miles , 16 km
Cloud details: Partly cloudy 7500 ft
Mostly cloudy 9000 ft
Overcast 11000 ft
2021/12/03 03:53 KDXR 030353Z AUTO 28014G21KT 10SM SCT075 BKN090 OVC110 09/01 A2961 RMK AO2 SLP026 T00940011
KHTO - East Hampton, New York, USA
Distance from station: E 43mi, 69km
Updated: Thu, 12/2/2021 11:15 pm EST
Light rain, Overcast
Light rain, Overcast
 Wind from NW
Wind: NW 15 mph , 24 km/h, Gust: 22 mph , 35 km/h
Temperature: 48°F , 9°C
Wind Chill: 42°F , 6°C
Dew Point: 43°F , 6°C
Humidity: 82%
Barometer: 29.59 inHg , 1002 hPa
Summary: Light rain
Clouds: Overcast
Visibility: 10 miles , 16 km
Cloud details: Mostly cloudy 4500 ft
Overcast 6000 ft
2021/12/03 04:15 KHTO 030415Z AUTO 31013G19KT 10SM -RA BKN045 OVC060 09/06 A2959 RMK AO2 T00880058
 
KOXC - Oxford/Waterbury, Connecticut, USA
Distance from station: N 43mi, 70km
Updated: Thu, 12/2/2021 10:51 pm EST
Overcast
Overcast
 Wind from W
Wind: W 7 mph , 11 km/h
Temperature: 45°F , 7°C
Wind Chill: 41°F , 5°C
Dew Point: 41°F , 5°C
Humidity: 87%
Barometer: 29.58 inHg , 1001.7 hPa
Clouds: Overcast
Visibility: 10 miles , 16 km
Cloud details: Few Clouds 2600 ft
Mostly cloudy 7000 ft
Overcast 9000 ft
2021/12/03 03:51 KOXC 030351Z AUTO 28006KT 10SM FEW026 BKN070 OVC090 07/05 A2958 RMK AO2 RAE01 SLP028 P0000 T00670050
KLGA - Nyc/La Guardia, New York, USA
Distance from station: W 44mi, 70km
Updated: Thu, 12/2/2021 10:51 pm EST
Mostly cloudy
Mostly cloudy
 Wind from WNW
Wind: WNW 20 mph , 31 km/h, Gust: 33 mph , 54 km/h
Temperature: 50°F , 10°C
Wind Chill: 44°F , 7°C
Dew Point: 36°F , 2°C
Humidity: 58%
Barometer: 29.64 inHg , 1003.7 hPa
Clouds: Mostly cloudy
Visibility: 10 miles , 16 km
Cloud details: Few Clouds 4900 ft
Mostly cloudy 6000 ft
Mostly cloudy 9000 ft
2021/12/03 03:51 KLGA 030351Z 30017G29KT 10SM FEW049 BKN060 BKN090 10/02 A2964 RMK AO2 PK WND 29044/0313 RAB22E31 SLP037 P0000 T01000022
 
KSNC - Chester, Connecticut, USA
Distance from station: NE 47mi, 76km
Updated: Thu, 12/2/2021 11:15 pm EST
Mostly cloudy
Mostly cloudy
 
Temperature: 45°F , 7°C
Dew Point: 41°F , 5°C
Humidity: 87%
Barometer: 29.56 inHg , 1001 hPa
Clouds: Mostly cloudy
Visibility: 10 miles , 16 km
Cloud details: Few Clouds 3400 ft
Few Clouds 4600 ft
Mostly cloudy 8000 ft
2021/12/03 04:15 KSNC 030415Z AUTO 10SM FEW034 FEW046 BKN080 07/05 A2956 RMK AO2
KMMK - Meriden, Connecticut, USA
Distance from station: NNE 48mi, 77km
Updated: Thu, 12/2/2021 10:53 pm EST
Overcast
Overcast
 Wind from calm
Wind: Calm
Temperature: 45°F , 7°C
Dew Point: 39°F , 4°C
Humidity: 81%
Barometer: 29.57 inHg , 1001.4 hPa
Clouds: Overcast
Visibility: 10 miles , 16 km
Cloud details: Overcast 9500 ft
2021/12/03 03:53 KMMK 030353Z AUTO 00000KT 10SM OVC095 07/04 A2957 RMK AO2 WSHFT 0242 RAE35 SLP013 P0002 T00670044
 
KNYC - Nyc/Central Park, New York, USA
Distance from station: W 48mi, 77km
Updated: Thu, 12/2/2021 10:51 pm EST
Overcast
Overcast
 Wind from WNW
Wind: WNW 9 mph , 15 km/h, Gust: 18 mph , 30 km/h
Temperature: 48°F , 9°C
Wind Chill: 44°F , 7°C
Dew Point: 36°F , 2°C
Humidity: 62%
Barometer: 29.67 inHg , 1004.7 hPa
Clouds: Overcast
Visibility: 10 miles , 16 km
Cloud details: Few Clouds 5500 ft
Overcast 7000 ft
2021/12/03 03:51 KNYC 030351Z AUTO 29008G16KT 260V330 10SM FEW055 OVC070 09/02 A2967 RMK AO2 PK WND 31032/0319 RAB14E26 SLP040 P0000 T00940017